Time;durP1;ratioP1;P1;durP2;ratioP2;P2;SDS_P1;SDS_P2;PMS_P1;PMS_P2;Temp;Humidity;BMP_temperature;BMP_pressure;BME280_temperature;BME280_humidity;BME280_pressure;Samples;Min_cycle;Max_cycle;Signal;HPM_P1;HPM_P2
2022/10/31 00:00:19;;;;;;;38.30;20.40;;;;;;;29.28;65.76;100710.19;5038038;28;65624;-36
2022/10/31 00:02:50;;;;;;;25.30;17.60;;;;;;;29.10;64.47;100707.31;5046788;28;69021;-38
2022/10/31 00:05:21;;;;;;;31.42;17.58;;;;;;;28.88;64.97;100694.03;5041089;28;66103;-36
2022/10/31 00:08:01;;;;;;;111.70;49.05;;;;;;;29.04;65.60;100718.97;5039499;28;70575;-38
2022/10/31 00:10:32;;;;;;;166.73;74.95;;;;;;;28.98;66.76;100700.91;5039145;28;66166;-36
2022/10/31 00:13:03;;;;;;;179.82;81.05;;;;;;;29.14;67.25;100719.34;5041376;28;70176;-36
2022/10/31 00:15:36;;;;;;;143.43;64.40;;;;;;;29.10;66.88;100718.13;5040918;28;67727;-36
2022/10/31 00:18:10;;;;;;;129.95;60.00;;;;;;;29.16;66.95;100726.19;5041397;28;70002;-35
2022/10/31 00:20:41;;;;;;;134.27;55.50;;;;;;;29.20;67.51;100732.03;5037964;28;65880;-35
2022/10/31 00:23:16;;;;;;;122.47;49.85;;;;;;;29.31;63.81;100731.38;5037335;28;69720;-36
2022/10/31 00:25:47;;;;;;;115.03;45.72;;;;;;;29.34;62.73;100736.34;5032712;28;64533;-35
2022/10/31 00:28:18;;;;;;;95.32;43.50;;;;;;;29.36;62.18;100744.22;5032241;28;69965;-35
2022/10/31 00:30:49;;;;;;;96.13;40.73;;;;;;;29.35;62.40;100737.97;5039013;28;66473;-35
2022/10/31 00:33:22;;;;;;;92.47;40.38;;;;;;;29.43;61.74;100750.44;5038197;28;70216;-36
2022/10/31 00:35:53;;;;;;;86.78;40.25;;;;;;;29.45;62.19;100752.91;5037395;28;66972;-35
2022/10/31 00:38:24;;;;;;;88.10;38.17;;;;;;;29.46;61.93;100754.59;5048968;28;70083;-36
2022/10/31 00:40:55;;;;;;;81.53;37.60;;;;;;;29.51;61.84;100757.47;5041559;28;65981;-35
2022/10/31 00:43:26;;;;;;;81.82;36.42;;;;;;;29.51;61.77;100762.88;5044495;28;70206;-35
2022/10/31 00:45:57;;;;;;;78.00;37.13;;;;;;;29.50;61.17;100762.03;5029397;28;66344;-35
2022/10/31 00:48:28;;;;;;;71.72;34.25;;;;;;;29.57;61.51;100775.53;5036561;28;69753;-36
2022/10/31 00:51:00;;;;;;;78.72;34.78;;;;;;;29.46;61.14;100755.41;5055143;28;66659;-35
2022/10/31 00:53:31;;;;;;;75.70;34.20;;;;;;;29.59;61.40;100774.28;5045650;28;69611;-35
2022/10/31 00:56:02;;;;;;;78.97;35.13;;;;;;;29.49;60.91;100759.56;5045635;28;67326;-37
2022/10/31 00:58:33;;;;;;;73.03;32.30;;;;;;;29.60;60.59;100772.41;5039554;28;70143;-37
2022/10/31 01:01:04;;;;;;;78.45;34.33;;;;;;;29.57;60.93;100768.25;5038494;28;67513;-35
2022/10/31 01:03:38;;;;;;;71.82;33.15;;;;;;;29.67;60.46;100789.47;5044880;28;70086;-36
2022/10/31 01:06:14;;;;;;;68.70;32.13;;;;;;;29.66;60.91;100787.78;5049034;28;66477;-36
2022/10/31 01:08:48;;;;;;;72.03;31.92;;;;;;;29.27;60.36;100724.72;5035823;28;69696;-38
2022/10/31 01:11:22;;;;;;;61.88;30.60;;;;;;;29.62;60.69;100792.78;5042865;28;66091;-36
2022/10/31 01:13:54;;;;;;;62.63;32.20;;;;;;;28.91;60.40;100660.38;5039728;28;70126;-36
2022/10/31 01:16:27;;;;;;;64.90;28.98;;;;;;;29.33;60.11;100734.66;5036624;28;66028;-36
2022/10/31 01:18:58;;;;;;;60.63;30.92;;;;;;;29.75;60.07;100791.06;5036744;28;70461;-36
2022/10/31 01:21:31;;;;;;;65.97;29.42;;;;;;;29.74;60.55;100795.66;5036315;28;65709;-36
2022/10/31 01:24:04;;;;;;;55.78;28.10;;;;;;;29.66;60.36;100781.56;5039580;28;70301;-37
2022/10/31 01:26:38;;;;;;;57.33;28.10;;;;;;;29.73;60.42;100794.00;5046106;28;66593;-37
2022/10/31 01:29:12;;;;;;;63.90;28.40;;;;;;;29.80;60.39;100794.78;5030913;28;69906;-37
2022/10/31 01:31:43;;;;;;;53.88;28.05;;;;;;;29.80;60.42;100793.97;5044697;28;66676;-35
2022/10/31 01:34:17;;;;;;;62.15;30.05;;;;;;;29.37;59.77;100722.41;5036493;28;69957;-36
2022/10/31 01:36:50;;;;;;;54.25;27.65;;;;;;;29.79;59.77;100793.16;5037603;28;66517;-36
2022/10/31 01:39:24;;;;;;;48.47;26.05;;;;;;;29.77;59.95;100784.41;5032235;28;70970;-37
2022/10/31 01:41:55;;;;;;;45.83;25.17;;;;;;;29.80;59.72;100786.69;5038290;28;66271;-37
2022/10/31 01:44:27;;;;;;;44.60;23.88;;;;;;;29.89;59.75;100808.06;5054560;28;70640;-37
2022/10/31 01:47:17;;;;;;;43.25;24.13;;;;;;;29.91;59.59;100806.00;5034045;28;67052;-36
2022/10/31 01:50:00;;;;;;;44.05;21.77;;;;;;;29.93;59.63;100807.44;5063242;28;70972;-36
2022/10/31 01:52:38;;;;;;;47.15;23.35;;;;;;;29.95;59.38;100823.44;5046739;28;66076;-36
2022/10/31 01:55:23;;;;;;;38.70;22.48;;;;;;;29.98;59.58;100802.22;5039710;28;70414;-36
2022/10/31 01:58:04;;;;;;;42.30;22.55;;;;;;;29.57;59.56;100735.81;5039474;28;66792;-37
2022/10/31 02:00:35;;;;;;;36.60;21.15;;;;;;;30.01;59.33;100803.66;5038899;28;71356;-37
2022/10/31 02:03:06;;;;;;;40.90;20.45;;;;;;;30.02;59.60;100803.44;5048158;28;65221;-36
2022/10/31 02:05:38;;;;;;;40.05;21.52;;;;;;;30.06;58.92;100814.63;5036527;28;69998;-36
2022/10/31 02:08:15;;;;;;;37.25;21.58;;;;;;;30.06;59.53;100803.81;5037828;28;65503;-36
2022/10/31 02:10:50;;;;;;;36.75;20.48;;;;;;;30.09;59.28;100803.41;5039476;28;70445;-36
2022/10/31 02:13:22;;;;;;;30.50;19.10;;;;;;;30.10;59.44;100796.94;5035241;28;67664;-37
2022/10/31 02:15:57;;;;;;;29.63;18.83;;;;;;;30.09;58.73;100789.88;5054148;28;70428;-36
2022/10/31 02:18:31;;;;;;;36.78;19.33;;;;;;;29.64;58.99;100702.53;5021284;28;65444;-36
2022/10/31 02:21:15;;;;;;;31.40;19.50;;;;;;;30.18;58.72;100796.69;5020910;28;69189;-35
2022/10/31 02:24:10;;;;;;;34.03;18.83;;;;;;;30.07;58.79;100800.09;5029682;28;66597;-38
2022/10/31 02:27:10;;;;;;;25.70;18.38;;;;;;;30.17;59.11;100805.84;5036751;28;70386;-36
2022/10/31 02:30:03;;;;;;;24.13;17.90;;;;;;;30.12;58.70;100812.97;5038407;28;66064;-35
2022/10/31 02:32:34;;;;;;;;;;;;;;;29.84;59.74;100812.25;5051334;28;70998;-36
2022/10/31 02:35:20;;;;;;;26.05;15.98;;;;;;;30.23;58.67;100815.00;5038570;28;66443;-36
2022/10/31 02:38:21;;;;;;;27.63;16.92;;;;;;;30.16;58.59;100812.28;5034588;28;69684;-36
2022/10/31 02:41:20;;;;;;;23.48;16.80;;;;;;;29.79;59.05;100755.28;5035551;28;65863;-36
2022/10/31 02:44:07;;;;;;;22.90;15.50;;;;;;;30.14;58.88;100790.03;5038502;28;69710;-36
2022/10/31 02:46:51;;;;;;;20.23;15.73;;;;;;;30.16;58.85;100790.66;5036590;28;66639;-36
2022/10/31 02:49:34;;;;;;;27.73;16.38;;;;;;;29.94;58.23;100746.88;5036014;28;70704;-36
2022/10/31 02:52:19;;;;;;;22.08;14.82;;;;;;;30.01;58.12;100758.50;5024871;28;66359;-36
2022/10/31 02:54:50;;;;;;;19.60;15.20;;;;;;;30.45;58.08;100805.50;5038355;28;70275;-36
2022/10/31 02:57:29;;;;;;;20.73;14.43;;;;;;;30.14;57.91;100757.56;5034701;28;65395;-36
2022/10/31 03:00:06;;;;;;;16.93;13.33;;;;;;;30.40;58.40;100788.25;5037660;28;70569;-36
2022/10/31 03:02:52;;;;;;;20.00;14.02;;;;;;;30.51;58.28;100792.97;5037151;28;67027;-35
2022/10/31 03:06:08;;;;;;;14.13;12.73;;;;;;;30.06;57.97;100738.88;5047231;28;70402;-37
2022/10/31 03:08:59;;;;;;;13.93;12.40;;;;;;;30.45;57.93;100780.28;5015961;28;65802;-35
2022/10/31 03:12:07;;;;;;;13.52;12.13;;;;;;;30.49;57.69;100786.94;5037242;28;70389;-37
2022/10/31 03:14:47;;;;;;;16.58;12.50;;;;;;;30.18;57.56;100710.09;5033240;28;66081;-37
2022/10/31 03:17:26;;;;;;;13.90;11.80;;;;;;;30.18;57.28;100710.09;5037542;28;70570;-37
2022/10/31 03:20:01;;;;;;;14.43;11.60;;;;;;;30.62;57.59;100770.59;5037814;28;65420;-37
2022/10/31 03:22:35;;;;;;;15.18;10.98;;;;;;;30.59;57.72;100754.78;5053748;28;70143;-37
2022/10/31 03:25:09;;;;;;;11.38;10.30;;;;;;;30.20;57.51;100677.41;5040518;28;65893;-37
2022/10/31 03:27:42;;;;;;;12.70;11.32;;;;;;;30.39;56.89;100706.22;5048874;27;69002;-36
2022/10/31 03:30:16;;;;;;;13.60;12.15;;;;;;;30.66;57.43;100733.88;5055713;28;66339;-37
2022/10/31 03:33:04;;;;;;;12.32;11.13;;;;;;;30.82;57.41;100764.19;5037078;28;69800;-37
2022/10/31 03:35:36;;;;;;;12.35;11.02;;;;;;;30.39;57.51;100691.84;5051389;28;67066;-36
2022/10/31 03:38:09;;;;;;;12.02;10.82;;;;;;;30.49;56.71;100700.31;5035688;28;69355;-37
2022/10/31 03:40:43;;;;;;;12.27;11.02;;;;;;;30.76;56.67;100735.25;5040674;28;66452;-35
2022/10/31 03:43:20;;;;;;;11.10;10.10;;;;;;;30.62;57.19;100704.75;5024787;28;70671;-36
2022/10/31 03:45:56;;;;;;;11.73;10.55;;;;;;;30.91;57.21;100755.53;5028080;28;66419;-35
2022/10/31 03:48:29;;;;;;;12.50;11.25;;;;;;;30.94;56.91;100746.16;5010301;28;68218;-35
2022/10/31 03:51:25;;;;;;;12.18;10.85;;;;;;;30.60;56.86;100696.06;5045026;28;66604;-37
2022/10/31 03:54:35;;;;;;;12.07;10.88;;;;;;;30.91;57.06;100743.88;5031879;28;69919;-37
2022/10/31 03:57:19;;;;;;;11.65;10.45;;;;;;;30.95;57.14;100742.38;5031153;28;65307;-37
2022/10/31 04:00:03;;;;;;;15.45;10.63;;;;;;;30.54;56.87;100659.88;5047422;28;70438;-36
2022/10/31 04:03:10;;;;;;;11.45;10.48;;;;;;;30.98;57.35;100720.28;5054142;28;66371;-36
2022/10/31 04:05:49;;;;;;;10.88;9.88;;;;;;;30.67;56.49;100656.19;5053618;28;69654;-36
2022/10/31 04:08:26;;;;;;;9.80;9.13;;;;;;;30.57;56.66;100632.34;5031906;28;66552;-36
2022/10/31 04:11:00;;;;;;;11.50;10.38;;;;;;;31.08;57.12;100719.75;5047638;28;70909;-35
2022/10/31 04:13:36;;;;;;;14.55;10.48;;;;;;;30.98;56.95;100687.78;5040527;28;65856;-36
2022/10/31 04:16:16;;;;;;;11.10;10.20;;;;;;;31.05;56.80;100685.81;5050885;28;69068;-36
2022/10/31 04:18:48;;;;;;;10.50;9.70;;;;;;;31.09;56.83;100694.28;5056384;28;65974;-35
2022/10/31 04:21:19;;;;;;;9.93;9.13;;;;;;;31.12;56.85;100689.28;5037029;28;70220;-35
2022/10/31 04:23:50;;;;;;;;;;;;;;;30.79;57.71;100702.34;5035967;28;65636;-36
2022/10/31 04:26:26;;;;;;;10.25;9.27;;;;;;;31.05;57.00;100677.69;5048817;28;69744;-35
2022/10/31 04:28:57;;;;;;;11.05;10.23;;;;;;;31.07;56.81;100663.91;5041548;28;65760;-35
2022/10/31 04:31:29;;;;;;;11.80;10.65;;;;;;;31.16;56.82;100674.22;5035172;28;70600;-37
2022/10/31 04:34:00;;;;;;;11.65;10.55;;;;;;;31.20;56.73;100668.31;5040390;28;66565;-36
2022/10/31 04:36:31;;;;;;;10.20;9.30;;;;;;;31.19;56.95;100666.69;5041032;28;70381;-37
2022/10/31 04:39:02;;;;;;;10.68;9.70;;;;;;;31.23;56.44;100666.00;5036702;28;65877;-37
2022/10/31 04:41:41;;;;;;;10.27;9.40;;;;;;;31.27;56.64;100652.81;5042233;28;70142;-36
2022/10/31 04:44:16;;;;;;;17.40;9.90;;;;;;;31.28;56.46;100654.47;5040937;28;66041;-35
2022/10/31 04:46:51;;;;;;;9.80;8.90;;;;;;;31.30;56.37;100641.53;5025410;28;69717;-37
2022/10/31 04:49:24;;;;;;;9.68;8.85;;;;;;;31.33;56.38;100650.00;5035394;28;65705;-37
2022/10/31 04:51:54;;;;;;;9.98;9.18;;;;;;;31.35;56.33;100638.97;5037934;28;70522;-37
2022/10/31 04:54:26;;;;;;;9.73;8.93;;;;;;;31.36;56.11;100637.91;5039024;28;66115;-36
2022/10/31 04:57:15;;;;;;;9.73;8.98;;;;;;;31.38;55.92;100633.09;5043480;28;70378;-36
2022/10/31 04:59:47;;;;;;;12.63;9.25;;;;;;;31.41;55.66;100631.81;5049136;28;65650;-37
2022/10/31 05:02:18;;;;;;;9.80;9.07;;;;;;;31.41;56.18;100638.06;5041778;28;68879;-35
2022/10/31 05:04:56;;;;;;;9.43;8.82;;;;;;;31.32;55.94;100621.28;5049407;28;65063;-35
2022/10/31 05:07:27;;;;;;;9.40;8.70;;;;;;;31.46;55.66;100630.06;5046235;28;70141;-36
2022/10/31 05:09:58;;;;;;;10.68;9.60;;;;;;;31.44;56.00;100610.50;5037152;28;66213;-36
2022/10/31 05:12:31;;;;;;;9.57;8.75;;;;;;;31.51;55.85;100619.38;5044524;28;70204;-36
2022/10/31 05:15:26;;;;;;;11.20;9.38;;;;;;;31.07;55.60;100523.88;5047945;28;64766;-36
2022/10/31 05:18:15;;;;;;;9.27;8.65;;;;;;;31.54;55.43;100588.25;5036059;28;70262;-35
2022/10/31 05:20:46;;;;;;;9.75;9.02;;;;;;;31.56;55.78;100597.78;5048351;28;65863;-36
2022/10/31 05:23:33;;;;;;;9.65;8.85;;;;;;;31.52;55.24;100583.06;5043741;28;69157;-36
2022/10/31 05:26:05;;;;;;;9.48;8.77;;;;;;;31.58;55.46;100584.84;5046194;28;66383;-35
2022/10/31 05:28:37;;;;;;;10.43;9.53;;;;;;;31.51;55.40;100573.28;5043295;28;70191;-36
2022/10/31 05:31:07;;;;;;;9.38;8.77;;;;;;;31.64;55.51;100579.56;5034082;28;65472;-35
2022/10/31 05:33:39;;;;;;;9.90;9.10;;;;;;;31.65;55.51;100573.06;5034536;28;69921;-35
2022/10/31 05:36:28;;;;;;;9.40;8.80;;;;;;;31.66;55.67;100572.00;5031568;28;66525;-35
2022/10/31 05:39:01;;;;;;;9.73;8.93;;;;;;;31.69;55.46;100568.84;5035934;28;69615;-35
2022/10/31 05:41:36;;;;;;;9.02;8.43;;;;;;;31.69;55.30;100558.00;5022077;28;65478;-35
2022/10/31 05:44:16;;;;;;;8.88;8.05;;;;;;;31.74;55.47;100560.84;5032776;28;70438;-35
2022/10/31 05:46:59;;;;;;;9.18;8.48;;;;;;;31.73;54.91;100551.03;5033581;28;66247;-37
2022/10/31 05:50:04;;;;;;;9.30;8.60;;;;;;;31.77;55.07;100544.91;5026829;28;69706;-36
2022/10/31 05:52:56;;;;;;;9.82;8.85;;;;;;;31.77;55.38;100539.47;5038687;27;66141;-35
2022/10/31 05:55:33;;;;;;;9.18;8.48;;;;;;;31.80;55.23;100528.16;5038977;28;70149;-35
2022/10/31 05:58:10;;;;;;;8.70;8.20;;;;;;;31.86;55.08;100528.28;5052832;28;65438;-35
2022/10/31 06:00:46;;;;;;;10.20;9.07;;;;;;;31.86;54.91;100526.41;5038388;28;69608;-37
2022/10/31 06:03:17;;;;;;;9.48;8.80;;;;;;;31.88;54.93;100512.63;5037755;28;66767;-44
2022/10/31 06:05:51;;;;;;;9.27;8.48;;;;;;;31.89;54.80;100509.66;5037892;28;70196;-35
2022/10/31 06:08:27;;;;;;;8.23;7.57;;;;;;;31.92;55.40;100506.50;5038113;28;65534;-37
2022/10/31 06:11:02;;;;;;;9.35;8.55;;;;;;;31.94;55.20;100496.25;5035563;28;69908;-36
2022/10/31 06:13:51;;;;;;;9.30;8.60;;;;;;;31.97;54.57;100505.78;5038085;28;65460;-36
2022/10/31 06:16:32;;;;;;;8.77;8.18;;;;;;;31.99;54.96;100490.94;5037208;28;70551;-36
2022/10/31 06:19:22;;;;;;;9.82;8.73;;;;;;;32.01;55.04;100486.09;5049104;28;66391;-36
2022/10/31 06:21:53;;;;;;;8.77;8.17;;;;;;;32.03;54.86;100478.53;5042741;28;69669;-36
2022/10/31 06:24:24;;;;;;;8.65;8.02;;;;;;;32.05;54.65;100484.53;5045138;28;65768;-36
2022/10/31 06:26:55;;;;;;;8.80;8.07;;;;;;;32.11;54.65;100479.25;5036560;28;69155;-36
2022/10/31 06:29:26;;;;;;;8.98;8.27;;;;;;;32.11;54.70;100468.38;5034780;28;66853;-36
2022/10/31 06:32:12;;;;;;;12.70;8.48;;;;;;;32.05;54.58;100460.13;5039023;28;70248;-36
2022/10/31 06:34:48;;;;;;;8.50;7.90;;;;;;;32.19;54.82;100468.00;5028085;28;65528;-36
2022/10/31 06:37:18;;;;;;;8.43;7.75;;;;;;;32.22;54.28;100464.81;5027882;28;70235;-38
2022/10/31 06:39:51;;;;;;;8.35;7.70;;;;;;;32.25;54.59;100453.47;5037702;28;66629;-36
2022/10/31 06:42:22;;;;;;;8.43;7.70;;;;;;;32.24;54.38;100452.66;5039099;28;69322;-36
2022/10/31 06:44:53;;;;;;;8.67;8.07;;;;;;;32.19;54.15;100443.59;5036629;28;67789;-36
2022/10/31 06:47:54;;;;;;;9.23;8.52;;;;;;;32.23;54.13;100450.19;5043097;28;69623;-36
2022/10/31 06:51:04;;;;;;;8.27;7.38;;;;;;;32.37;54.22;100461.59;5040178;28;66785;-36
2022/10/31 06:53:36;;;;;;;8.82;8.30;;;;;;;32.30;54.05;100436.50;5044337;28;70218;-35
2022/10/31 06:56:09;;;;;;;9.13;7.82;;;;;;;32.44;54.06;100444.09;5045467;28;67349;-36
2022/10/31 06:58:46;;;;;;;8.32;7.63;;;;;;;32.51;54.22;100445.88;5039729;28;70546;-35
2022/10/31 07:01:23;;;;;;;7.72;7.20;;;;;;;32.53;53.73;100446.47;5045210;28;66596;-36
2022/10/31 07:03:54;;;;;;;7.80;7.30;;;;;;;32.55;53.80;100457.91;5046416;28;69920;-35
2022/10/31 07:06:25;;;;;;;7.43;6.93;;;;;;;32.57;53.63;100448.47;5041197;28;67422;-36
2022/10/31 07:08:56;;;;;;;7.85;7.45;;;;;;;32.60;53.54;100444.44;5044681;28;70014;-35
2022/10/31 07:11:28;;;;;;;9.38;7.82;;;;;;;32.64;53.56;100440.16;5028155;28;66789;-36
2022/10/31 07:14:00;;;;;;;8.07;7.38;;;;;;;32.55;53.49;100425.34;5042250;28;70263;-35
2022/10/31 07:16:31;;;;;;;8.30;7.70;;;;;;;32.68;53.33;100435.88;5039779;28;67256;-36
2022/10/31 07:19:04;;;;;;;7.70;6.90;;;;;;;32.72;53.52;100432.44;5038288;28;70658;-35
2022/10/31 07:21:35;;;;;;;7.97;7.43;;;;;;;32.69;53.56;100434.84;5036579;28;65819;-35
2022/10/31 07:24:06;;;;;;;10.50;7.53;;;;;;;32.78;53.23;100437.97;5037424;28;70209;-37
2022/10/31 07:26:43;;;;;;;8.38;7.78;;;;;;;32.81;53.18;100422.00;5039419;28;65707;-36
2022/10/31 07:29:15;;;;;;;8.25;7.57;;;;;;;32.86;53.11;100427.53;5038265;28;70498;-35
2022/10/31 07:31:47;;;;;;;7.75;7.20;;;;;;;32.86;53.07;100422.09;5037926;28;65805;-36
2022/10/31 07:34:23;;;;;;;8.25;7.65;;;;;;;32.91;52.76;100419.47;5023662;28;69460;-34
2022/10/31 07:36:57;;;;;;;8.27;7.60;;;;;;;32.94;52.71;100410.84;5043622;28;65723;-35
2022/10/31 07:39:28;;;;;;;7.38;6.97;;;;;;;32.97;52.75;100417.66;5039345;28;69815;-35
2022/10/31 07:42:01;;;;;;;7.30;6.90;;;;;;;32.87;52.83;100391.13;5039534;28;66821;-35
2022/10/31 07:44:33;;;;;;;7.90;7.38;;;;;;;33.04;52.75;100406.66;5037341;28;70265;-35
2022/10/31 07:47:24;;;;;;;7.00;6.50;;;;;;;33.06;52.65;100396.38;5051833;28;67304;-35
2022/10/31 07:50:18;;;;;;;8.00;7.43;;;;;;;32.75;52.30;100346.13;5040502;28;70733;-35
2022/10/31 07:53:10;;;;;;;10.10;6.85;;;;;;;33.15;52.10;100403.03;5038413;28;65438;-37
2022/10/31 07:55:44;;;;;;;7.60;6.45;;;;;;;33.16;52.47;100410.13;5043489;28;69637;-36
2022/10/31 07:58:17;;;;;;;7.53;6.70;;;;;;;33.18;52.57;100407.97;5038374;28;66137;-35
2022/10/31 08:00:49;;;;;;;7.38;6.88;;;;;;;33.21;52.51;100399.34;5057269;28;69738;-37
2022/10/31 08:03:30;;;;;;;7.18;6.65;;;;;;;33.25;52.24;100395.06;5039206;28;65736;-36
2022/10/31 08:06:19;;;;;;;6.93;6.43;;;;;;;33.27;52.03;100395.63;5053868;28;69710;-36
2022/10/31 08:09:09;;;;;;;8.18;7.38;;;;;;;33.22;52.28;100387.41;5041242;28;64327;-37
2022/10/31 08:11:40;;;;;;;;;;;;;;;33.08;52.50;100402.41;5034605;28;70237;-36
2022/10/31 08:14:11;;;;;;;7.00;6.40;;;;;;;33.24;52.40;100385.25;5032593;28;66150;-35
2022/10/31 08:16:42;;;;;;;9.77;6.78;;;;;;;33.40;52.05;100407.22;5044325;28;69557;-36
2022/10/31 08:19:14;;;;;;;14.32;7.60;;;;;;;33.44;51.64;100411.13;5060005;28;66798;-36
2022/10/31 08:21:45;;;;;;;15.27;7.70;;;;;;;33.46;52.31;100404.34;5046308;28;71066;-35
2022/10/31 08:24:16;;;;;;;19.52;7.63;;;;;;;33.49;51.96;100403.00;5041011;28;66000;-35
2022/10/31 08:26:47;;;;;;;23.67;7.93;;;;;;;33.53;51.71;100405.03;5052798;28;72179;-35
2022/10/31 08:29:19;;;;;;;13.18;7.82;;;;;;;33.56;51.80;100395.53;5047223;28;66510;-36
2022/10/31 08:31:51;;;;;;;18.13;7.85;;;;;;;33.57;51.62;100411.63;5035850;28;70084;-35
2022/10/31 08:34:40;;;;;;;8.63;7.75;;;;;;;33.61;51.69;100417.38;5035092;28;65744;-35
2022/10/31 08:37:39;;;;;;;13.02;7.65;;;;;;;33.63;51.59;100404.34;5015808;28;70675;-35
2022/10/31 08:40:12;;;;;;;10.53;8.20;;;;;;;33.64;51.47;100406.00;5032746;28;65296;-35
2022/10/31 08:42:43;;;;;;;9.90;7.55;;;;;;;33.68;51.55;100407.13;5034060;28;70356;-35
2022/10/31 08:45:15;;;;;;;10.98;8.10;;;;;;;33.70;51.33;100412.31;5035901;28;66049;-35
2022/10/31 08:47:46;;;;;;;13.02;7.43;;;;;;;33.72;51.06;100413.72;5035779;28;69571;-35
2022/10/31 08:50:17;;;;;;;14.43;7.63;;;;;;;33.72;51.40;100413.72;5039531;28;65556;-37
2022/10/31 08:52:49;;;;;;;10.07;7.95;;;;;;;33.76;51.10;100425.72;5031346;28;70184;-37
2022/10/31 08:55:35;;;;;;;8.38;7.50;;;;;;;33.78;51.27;100429.03;5036362;28;65731;-35
2022/10/31 08:58:21;;;;;;;12.73;8.15;;;;;;;33.72;51.17;100413.72;5047925;28;70000;-35
2022/10/31 09:00:56;;;;;;;9.82;7.80;;;;;;;33.80;51.15;100432.34;5039608;28;66740;-36
2022/10/31 09:03:30;;;;;;;13.02;7.30;;;;;;;33.84;50.94;100437.28;5036964;28;70474;-35
2022/10/31 09:06:03;;;;;;;8.85;7.97;;;;;;;33.85;51.38;100441.63;5039541;28;66546;-35
2022/10/31 09:08:35;;;;;;;8.02;7.15;;;;;;;33.86;50.99;100441.41;5037208;28;69323;-35
2022/10/31 09:11:06;;;;;;;8.15;7.07;;;;;;;33.86;50.92;100446.00;5049559;28;66073;-36
2022/10/31 09:14:10;;;;;;;8.13;7.38;;;;;;;33.84;51.31;100450.88;5030134;28;70428;-35
2022/10/31 09:16:41;;;;;;;13.32;7.80;;;;;;;33.88;51.08;100457.44;5038202;28;65355;-35
2022/10/31 09:19:19;;;;;;;8.45;7.72;;;;;;;33.91;50.83;100462.41;5045459;28;70165;-35
2022/10/31 09:21:53;;;;;;;9.98;7.32;;;;;;;33.57;50.67;100416.22;5031835;28;65736;-37
2022/10/31 09:24:24;;;;;;;11.30;7.80;;;;;;;33.93;51.02;100479.28;5035510;28;70519;-36
2022/10/31 09:26:55;;;;;;;8.77;7.90;;;;;;;33.93;51.20;100479.28;5037108;28;66258;-35
2022/10/31 09:29:29;;;;;;;15.65;8.07;;;;;;;33.94;50.77;100483.69;5036223;28;70141;-37
2022/10/31 09:32:02;;;;;;;12.35;8.30;;;;;;;33.94;50.92;100487.22;5053198;28;65708;-35
2022/10/31 09:34:39;;;;;;;10.38;8.18;;;;;;;33.96;50.87;100487.81;5038735;28;69719;-35
2022/10/31 09:37:16;;;;;;;7.97;7.38;;;;;;;33.84;50.77;100469.91;5035664;28;65705;-35
2022/10/31 09:39:47;;;;;;;13.15;7.55;;;;;;;33.97;50.75;100502.22;5039808;28;71145;-37
2022/10/31 09:43:00;;;;;;;8.75;8.05;;;;;;;33.92;50.60;100504.88;5050424;28;66487;-37
2022/10/31 09:45:52;;;;;;;9.20;8.48;;;;;;;33.87;50.71;100508.31;5030357;28;70570;-35
2022/10/31 09:48:51;;;;;;;12.65;9.60;;;;;;;33.92;50.65;100505.69;5024747;28;43527;-36
2022/10/31 09:51:39;;;;;;;9.75;8.95;;;;;;;33.94;50.32;100513.59;5039155;28;70251;-37
2022/10/31 09:54:26;;;;;;;8.80;8.07;;;;;;;33.93;50.79;100511.94;5046573;28;65616;-37
2022/10/31 09:57:00;;;;;;;9.57;8.52;;;;;;;33.94;50.99;100513.59;5031596;28;69592;-35
2022/10/31 09:59:37;;;;;;;10.68;8.23;;;;;;;33.51;50.65;100455.25;5055208;28;66426;-36
2022/10/31 10:02:33;;;;;;;10.13;9.10;;;;;;;33.94;50.61;100519.06;5017281;28;69869;-34
2022/10/31 10:05:10;;;;;;;9.57;8.07;;;;;;;33.87;50.99;100524.66;5023129;28;66598;-38
2022/10/31 10:07:59;;;;;;;9.18;8.27;;;;;;;33.90;50.96;100529.59;5033657;28;70113;-37
2022/10/31 10:11:17;;;;;;;13.48;7.65;;;;;;;33.41;51.20;100466.00;5043801;28;65655;-37
2022/10/31 10:14:13;;;;;;;9.07;8.20;;;;;;;33.83;51.12;100533.59;5020877;28;69315;-35
2022/10/31 10:17:05;;;;;;;10.50;8.65;;;;;;;33.77;51.21;100544.38;5039498;28;66268;-37
2022/10/31 10:19:54;;;;;;;9.65;8.80;;;;;;;33.84;51.50;100551.53;5035543;28;70505;-35
2022/10/31 10:22:52;;;;;;;9.70;8.85;;;;;;;33.73;51.35;100556.81;5035312;28;66098;-37
2022/10/31 10:25:28;;;;;;;8.90;8.02;;;;;;;33.81;51.00;100572.72;5035452;28;69178;-35
2022/10/31 10:28:02;;;;;;;8.90;8.15;;;;;;;33.79;51.71;100574.03;5036978;28;65474;-36
2022/10/31 10:31:02;;;;;;;8.95;8.15;;;;;;;33.32;53.09;100563.41;5040868;27;70532;-38
2022/10/31 10:33:34;;;;;;;10.07;9.27;;;;;;;33.18;54.93;100565.63;5046295;28;66614;-38
2022/10/31 10:36:16;;;;;;;11.70;10.55;;;;;;;33.03;55.76;100577.03;5042543;28;70382;-39
2022/10/31 10:39:00;;;;;;;10.48;9.40;;;;;;;32.88;56.50;100574.00;5044221;28;65163;-37
2022/10/31 10:41:33;;;;;;;10.82;9.82;;;;;;;32.88;57.03;100582.97;5046277;28;70164;-39
2022/10/31 10:44:10;;;;;;;10.93;9.38;;;;;;;32.80;57.19;100577.91;5045691;28;66007;-37
2022/10/31 10:49:50;;;;;;;11.48;10.43;;;;;;;32.69;58.20;100590.47;5039932;28;66720;-37
2022/10/31 10:52:46;;;;;;;10.93;9.85;;;;;;;32.57;58.65;100594.25;5032904;28;69580;-36
2022/10/31 10:55:33;;;;;;;11.13;10.23;;;;;;;32.63;59.10;100590.59;5030737;28;66992;-36
2022/10/31 10:58:07;;;;;;;15.70;10.52;;;;;;;32.66;59.12;100612.66;5038786;28;70294;-38
2022/10/31 11:00:41;;;;;;;11.85;10.85;;;;;;;32.26;59.97;100539.25;5037019;28;65995;-37
2022/10/31 11:03:14;;;;;;;15.18;11.20;;;;;;;32.26;60.57;100547.41;5039624;28;70097;-38
2022/10/31 11:05:53;;;;;;;14.30;11.13;;;;;;;32.20;60.84;100548.34;5032965;28;66488;-36
2022/10/31 11:08:43;;;;;;;12.80;11.63;;;;;;;32.49;61.76;100612.56;5037407;28;70510;-37
2022/10/31 11:11:17;;;;;;;12.38;11.27;;;;;;;32.58;62.28;100614.94;5034965;28;66182;-36
2022/10/31 11:13:52;;;;;;;13.25;11.95;;;;;;;32.03;60.00;100497.50;5026624;28;70327;-36
2022/10/31 11:16:43;;;;;;;12.02;11.02;;;;;;;32.96;60.04;100622.53;5041066;28;65862;-36
2022/10/31 11:19:19;;;;;;;20.10;11.88;;;;;;;33.06;59.18;100627.34;5043153;28;70557;-37
2022/10/31 11:21:50;;;;;;;12.90;11.57;;;;;;;33.13;59.24;100633.50;5035443;28;66014;-38
2022/10/31 11:24:28;;;;;;;13.07;11.60;;;;;;;33.19;59.26;100637.94;5036155;28;70325;-37
2022/10/31 11:27:16;;;;;;;16.48;11.80;;;;;;;32.86;61.06;100587.81;5038685;28;65175;-37
2022/10/31 11:29:47;;;;;;;12.88;11.63;;;;;;;33.24;59.46;100629.91;5043197;28;70373;-37
2022/10/31 11:32:24;;;;;;;13.43;12.00;;;;;;;33.28;60.40;100635.66;5039518;28;66383;-37
2022/10/31 11:34:59;;;;;;;15.25;12.45;;;;;;;33.29;60.00;100649.03;5037651;28;69815;-38
2022/10/31 11:37:35;;;;;;;16.83;12.60;;;;;;;33.12;60.31;100613.63;5043693;28;66362;-38
2022/10/31 11:40:07;;;;;;;13.73;12.35;;;;;;;33.31;59.89;100651.50;5035848;28;70562;-38
2022/10/31 11:42:41;;;;;;;13.38;12.05;;;;;;;32.82;59.72;100570.34;5034456;28;66678;-38
2022/10/31 11:45:19;;;;;;;14.52;12.50;;;;;;;32.97;60.47;100604.31;5034492;28;70158;-37
2022/10/31 11:47:54;;;;;;;18.20;12.52;;;;;;;32.89;60.57;100598.19;5043116;28;67258;-38
2022/10/31 11:50:33;;;;;;;15.85;13.52;;;;;;;32.52;60.65;100543.41;5046020;28;70120;-37
2022/10/31 11:53:13;;;;;;;20.83;13.52;;;;;;;33.31;60.07;100674.06;5046971;28;65864;-38
2022/10/31 11:55:45;;;;;;;21.42;13.93;;;;;;;33.21;60.43;100657.56;5036749;28;70363;-37
2022/10/31 11:58:25;;;;;;;21.83;14.82;;;;;;;32.89;61.15;100617.22;5043468;28;65995;-37
2022/10/31 12:00:58;;;;;;;18.73;13.73;;;;;;;33.27;60.13;100685.69;5039021;28;70079;-37
2022/10/31 12:03:52;;;;;;;18.75;14.00;;;;;;;32.56;62.02;100619.75;5039907;28;66803;-38
2022/10/31 12:06:47;;;;;;;25.48;15.25;;;;;;;32.74;63.50;100703.00;5042198;28;70151;-37
2022/10/31 12:09:23;;;;;;;18.95;16.08;;;;;;;32.74;63.91;100709.25;5040455;28;66701;-38